createdAt,value
2022-08-26T00:00:06.637Z,150.33
2022-08-26T00:04:10.253Z,156.10
2022-08-26T00:08:15.401Z,142.17
2022-08-26T00:12:18.733Z,160.27
2022-08-26T00:16:41.000Z,172.60
2022-08-26T00:20:51.915Z,171.33
2022-08-26T00:24:55.125Z,169.33
2022-08-26T00:28:58.366Z,159.53
2022-08-26T00:33:04.534Z,161.43
2022-08-26T00:37:11.642Z,158.77
2022-08-26T00:41:21.134Z,183.03
2022-08-26T00:45:25.010Z,172.67
2022-08-26T00:49:35.138Z,163.60
2022-08-26T00:53:43.140Z,151.13
2022-08-26T00:57:47.338Z,157.00
2022-08-26T01:01:50.706Z,152.00
2022-08-26T01:05:58.229Z,151.90
2022-08-26T01:10:03.210Z,150.53
2022-08-26T01:14:09.228Z,171.27
2022-08-26T01:18:13.988Z,149.80
2022-08-26T01:22:22.083Z,181.63
2022-08-26T01:26:36.057Z,161.20
2022-08-26T01:30:41.258Z,163.23
2022-08-26T01:34:44.550Z,159.20
2022-08-26T01:38:48.075Z,168.60
2022-08-26T01:42:53.796Z,158.90
2022-08-26T01:46:59.586Z,164.43
2022-08-26T01:51:04.556Z,160.07
2022-08-26T01:55:11.370Z,159.90
2022-08-26T01:59:17.413Z,168.17
2022-08-26T02:03:22.664Z,181.57
2022-08-26T02:07:26.927Z,187.67
2022-08-26T02:11:30.577Z,183.53
2022-08-26T02:15:35.362Z,160.30
2022-08-26T02:19:42.910Z,151.17
2022-08-26T02:23:46.488Z,175.13
2022-08-26T02:27:49.758Z,170.10
2022-08-26T02:31:55.817Z,173.20
2022-08-26T02:35:59.377Z,157.83
2022-08-26T02:40:02.807Z,168.00
2022-08-26T02:44:07.313Z,178.73
2022-08-26T02:48:15.947Z,189.57
2022-08-26T02:52:19.333Z,162.93
2022-08-26T02:56:22.607Z,182.23
2022-08-26T03:00:26.120Z,166.67
2022-08-26T03:04:33.453Z,192.73
2022-08-26T03:08:36.790Z,166.33
2022-08-26T03:12:41.117Z,197.60
2022-08-26T03:16:44.431Z,165.67
2022-08-26T03:20:53.228Z,164.70
2022-08-26T03:24:56.489Z,173.40
2022-08-26T03:29:17.255Z,167.97
2022-08-26T03:33:22.468Z,172.67
2022-08-26T03:37:27.116Z,169.97
2022-08-26T03:41:32.846Z,179.43
2022-08-26T03:45:36.818Z,185.93
2022-08-26T03:49:40.830Z,186.77
2022-08-26T03:53:46.000Z,193.00
2022-08-26T03:57:49.342Z,198.60
2022-08-26T04:01:53.712Z,189.67
2022-08-26T04:05:57.044Z,192.30
2022-08-26T04:10:02.276Z,191.37
2022-08-26T04:14:07.982Z,193.50
2022-08-26T04:18:11.492Z,201.30
2022-08-26T04:22:15.563Z,178.40
2022-08-26T04:26:28.843Z,198.33
2022-08-26T04:30:32.892Z,180.43
2022-08-26T04:34:37.873Z,196.47
2022-08-26T04:38:42.775Z,210.10
2022-08-26T04:42:47.423Z,199.17
2022-08-26T04:46:51.002Z,169.13
2022-08-26T04:50:54.494Z,200.57
2022-08-26T04:54:57.979Z,198.13
2022-08-26T04:59:03.877Z,182.90
2022-08-26T05:03:10.990Z,197.60
2022-08-26T05:07:14.675Z,174.87
2022-08-26T05:11:22.034Z,182.87
2022-08-26T05:15:26.906Z,177.63
2022-08-26T05:19:46.777Z,187.73
2022-08-26T05:23:51.737Z,199.63
2022-08-26T05:27:55.121Z,173.07
2022-08-26T05:32:00.887Z,178.03
2022-08-26T05:36:09.366Z,174.57
2022-08-26T05:40:13.548Z,168.50
2022-08-26T05:44:18.950Z,160.63
2022-08-26T05:48:24.442Z,171.70
2022-08-26T05:52:27.938Z,168.03
2022-08-26T05:56:31.398Z,138.33
2022-08-26T06:00:34.810Z,134.53
2022-08-26T06:04:40.944Z,142.03
2022-08-26T06:08:44.695Z,137.90
2022-08-26T06:12:47.905Z,136.47
2022-08-26T06:16:51.173Z,122.57
2022-08-26T06:20:57.896Z,132.37
2022-08-26T06:25:19.441Z,115.57
2022-08-26T06:29:26.138Z,124.77
2022-08-26T06:33:29.773Z,99.10
2022-08-26T06:37:34.491Z,91.40
2022-08-26T06:41:43.251Z,107.27
2022-08-26T06:45:47.751Z,106.23
2022-08-26T06:49:51.397Z,97.37
2022-08-26T06:53:59.617Z,79.93
2022-08-26T06:58:03.732Z,68.77
2022-08-26T07:02:08.149Z,58.93
2022-08-26T07:06:11.502Z,55.50
2022-08-26T07:10:16.575Z,51.30
2022-08-26T07:14:21.466Z,32.83
2022-08-26T07:18:25.276Z,23.43
2022-08-26T07:22:29.436Z,27.90
2022-08-26T07:26:35.290Z,19.63
2022-08-26T07:30:41.903Z,23.90
2022-08-26T07:34:45.723Z,46.03
2022-08-26T07:38:49.420Z,17.57
2022-08-26T07:42:55.005Z,20.83
2022-08-26T07:46:58.931Z,24.10
2022-08-26T07:51:02.708Z,15.60
2022-08-26T07:55:09.801Z,16.93
2022-08-26T07:59:15.257Z,15.87
2022-08-26T08:03:19.048Z,20.20
2022-08-26T08:07:35.025Z,15.50
2022-08-26T08:11:42.756Z,16.33
2022-08-26T08:15:48.585Z,13.60
2022-08-26T08:19:53.776Z,14.50
2022-08-26T08:23:58.537Z,11.47
2022-08-26T08:28:02.178Z,16.07
2022-08-26T08:32:11.522Z,15.43
2022-08-26T08:36:18.492Z,12.40
2022-08-26T08:40:26.390Z,12.37
2022-08-26T08:44:30.001Z,12.33
2022-08-26T08:48:39.513Z,12.93
2022-08-26T08:52:47.145Z,13.87
2022-08-26T08:56:54.196Z,12.47
2022-08-26T09:01:07.077Z,14.53
2022-08-26T09:05:21.646Z,10.37
2022-08-26T09:09:31.907Z,15.70
2022-08-26T09:13:35.942Z,11.70
2022-08-26T09:17:49.438Z,11.90
2022-08-26T09:21:59.166Z,14.57
2022-08-26T09:26:04.617Z,9.90
2022-08-26T09:30:11.497Z,10.83
2022-08-26T09:34:18.240Z,9.07
2022-08-26T09:38:27.975Z,11.63
2022-08-26T09:42:31.428Z,14.83
2022-08-26T09:46:36.695Z,11.60
2022-08-26T09:50:50.598Z,14.70
2022-08-26T09:55:07.125Z,13.00
2022-08-26T09:59:12.114Z,9.43
2022-08-26T10:03:26.436Z,16.30
2022-08-26T10:07:40.553Z,11.10
2022-08-26T10:11:49.266Z,11.07
2022-08-26T10:16:00.661Z,13.83
2022-08-26T10:20:22.696Z,8.60
2022-08-26T10:24:32.702Z,10.00
2022-08-26T10:28:42.593Z,11.73
2022-08-26T10:32:52.696Z,8.40
2022-08-26T10:37:15.590Z,15.63
2022-08-26T10:41:28.001Z,12.10
2022-08-26T10:45:39.300Z,8.63
2022-08-26T10:49:45.521Z,10.60
2022-08-26T10:53:55.951Z,9.30
2022-08-26T10:58:09.093Z,10.50
2022-08-26T11:02:25.317Z,12.50
2022-08-26T11:06:31.417Z,13.90
2022-08-26T11:11:04.795Z,12.17
2022-08-26T11:15:09.980Z,8.63
2022-08-26T11:20:01.228Z,11.73
2022-08-26T11:24:05.544Z,14.70
2022-08-26T11:28:09.017Z,12.33
2022-08-26T11:32:26.067Z,16.33
2022-08-26T11:36:59.977Z,18.80
2022-08-26T11:41:12.686Z,10.27
2022-08-26T11:45:23.912Z,14.00
2022-08-26T11:49:28.394Z,14.80
2022-08-26T11:53:37.217Z,13.97
2022-08-26T11:58:23.377Z,19.77
2022-08-26T12:02:30.073Z,9.70
2022-08-26T12:06:41.975Z,12.70
2022-08-26T12:10:50.079Z,10.20
2022-08-26T12:15:12.229Z,14.87
2022-08-26T12:19:41.734Z,12.83
2022-08-26T12:24:23.659Z,13.60
2022-08-26T12:28:32.803Z,12.03
2022-08-26T12:32:39.223Z,10.50
2022-08-26T12:37:01.190Z,19.40
2022-08-26T12:41:04.499Z,15.90
2022-08-26T12:45:10.499Z,14.90
2022-08-26T12:49:18.591Z,12.23
2022-08-26T12:53:25.014Z,13.17
2022-08-26T12:57:31.705Z,12.30
2022-08-26T13:01:43.785Z,8.93
2022-08-26T13:05:47.367Z,10.40
2022-08-26T13:09:52.039Z,9.60
2022-08-26T13:13:58.722Z,15.50
2022-08-26T13:18:04.259Z,10.70
2022-08-26T13:22:07.758Z,10.30
2022-08-26T13:26:11.096Z,14.73
2022-08-26T13:30:15.148Z,9.87
2022-08-26T13:34:21.387Z,14.53
2022-08-26T13:38:33.393Z,13.27
2022-08-26T13:42:37.423Z,14.43
2022-08-26T13:46:53.007Z,14.43
2022-08-26T13:50:57.802Z,11.13
2022-08-26T13:55:01.519Z,11.90
2022-08-26T13:59:06.554Z,9.93
2022-08-26T14:03:13.391Z,7.40
2022-08-26T14:07:18.634Z,10.73
2022-08-26T14:11:22.546Z,9.47
2022-08-26T14:15:26.699Z,11.17
2022-08-26T14:19:33.099Z,11.87
2022-08-26T14:23:37.848Z,11.53
2022-08-26T14:27:41.940Z,9.50
2022-08-26T14:31:45.643Z,9.37
2022-08-26T14:35:49.099Z,15.23
2022-08-26T14:39:54.899Z,10.90
2022-08-26T14:44:03.000Z,10.93
2022-08-26T14:48:06.504Z,12.30
2022-08-26T14:52:11.527Z,12.43
2022-08-26T14:56:17.723Z,10.67
2022-08-26T15:00:21.577Z,8.60
2022-08-26T15:04:27.465Z,10.00
2022-08-26T15:08:33.477Z,9.33
2022-08-26T15:12:41.698Z,13.37
2022-08-26T15:16:46.084Z,13.20
2022-08-26T15:20:50.256Z,7.03
2022-08-26T15:24:54.775Z,9.23
2022-08-26T15:29:04.858Z,14.30
2022-08-26T15:33:15.336Z,12.50
2022-08-26T15:37:20.559Z,12.23
2022-08-26T15:41:26.230Z,9.40
2022-08-26T15:45:34.418Z,14.23
2022-08-26T15:49:38.054Z,10.70
2022-08-26T15:53:42.425Z,13.20
2022-08-26T15:57:46.346Z,13.17
2022-08-26T16:01:54.498Z,17.10
2022-08-26T16:05:59.291Z,11.47
2022-08-26T16:10:02.815Z,16.50
2022-08-26T16:14:08.499Z,12.87
2022-08-26T16:18:14.052Z,17.07
2022-08-26T16:22:18.120Z,18.30
2022-08-26T16:26:25.379Z,13.67
2022-08-26T16:30:30.425Z,15.43
2022-08-26T16:34:35.240Z,16.43
2022-08-26T16:38:39.639Z,15.27
2022-08-26T16:42:43.176Z,20.13
2022-08-26T16:46:47.696Z,17.50
2022-08-26T16:50:55.623Z,9.80
2022-08-26T16:54:59.691Z,9.07
2022-08-26T16:59:03.632Z,9.30
2022-08-26T17:03:07.071Z,8.13
2022-08-26T17:07:12.445Z,8.13
2022-08-26T17:11:16.393Z,11.77
2022-08-26T17:15:20.483Z,10.43
2022-08-26T17:19:24.012Z,13.00
2022-08-26T17:23:28.913Z,7.80
2022-08-26T17:27:32.500Z,7.80
2022-08-26T17:31:36.303Z,10.40
2022-08-26T17:35:39.694Z,9.83
2022-08-26T17:39:45.148Z,9.27
2022-08-26T17:43:48.685Z,8.80
2022-08-26T17:47:52.416Z,8.87
2022-08-26T17:51:58.537Z,8.33
2022-08-26T17:56:06.102Z,9.43
2022-08-26T18:00:14.552Z,8.20
2022-08-26T18:04:18.103Z,17.27
2022-08-26T18:08:22.071Z,9.50
2022-08-26T18:12:26.840Z,9.13
2022-08-26T18:16:38.230Z,8.40
2022-08-26T18:20:43.310Z,9.10
2022-08-26T18:24:55.411Z,11.90
2022-08-26T18:29:03.944Z,9.00
2022-08-26T18:33:07.256Z,10.57
2022-08-26T18:41:14.327Z,10.77
2022-08-26T18:45:19.221Z,10.93
2022-08-26T18:49:22.821Z,9.90
2022-08-26T18:53:26.670Z,14.03
2022-08-26T18:57:30.014Z,11.60
2022-08-26T19:01:36.077Z,10.30
2022-08-26T19:05:40.736Z,10.30
2022-08-26T19:09:44.351Z,9.43
2022-08-26T19:13:48.554Z,11.60
2022-08-26T19:17:56.780Z,10.60
2022-08-26T19:22:00.612Z,10.37
2022-08-26T19:26:06.007Z,14.47
2022-08-26T19:30:11.512Z,14.80
2022-08-26T19:34:18.239Z,10.87
2022-08-26T19:38:24.512Z,14.03
2022-08-26T19:42:31.702Z,17.73
2022-08-26T19:46:36.258Z,15.97
2022-08-26T19:50:42.430Z,13.13
2022-08-26T19:54:45.995Z,11.60
2022-08-26T19:58:50.072Z,12.40
2022-08-26T20:02:54.148Z,11.97
2022-08-26T20:07:00.615Z,15.07
2022-08-26T20:11:06.165Z,15.27
2022-08-26T20:15:11.940Z,11.97
2022-08-26T20:19:37.249Z,18.97
2022-08-26T20:23:44.007Z,16.73
2022-08-26T20:27:47.613Z,15.33
2022-08-26T20:31:52.879Z,14.93
2022-08-26T20:35:56.559Z,16.97
2022-08-26T20:40:01.556Z,17.00
2022-08-26T20:44:10.811Z,20.17
2022-08-26T20:48:21.211Z,17.90
2022-08-26T20:52:29.216Z,15.70
2022-08-26T20:56:34.200Z,14.70
2022-08-26T21:00:39.798Z,18.73
2022-08-26T21:04:43.158Z,17.63
2022-08-26T21:08:48.576Z,15.63
2022-08-26T21:12:53.364Z,18.23
2022-08-26T21:16:56.759Z,12.30
2022-08-26T21:21:00.175Z,13.80
2022-08-26T21:25:03.775Z,13.27
2022-08-26T21:29:09.997Z,17.27
2022-08-26T21:33:13.363Z,13.13
2022-08-26T21:37:17.120Z,16.30
2022-08-26T21:41:22.484Z,17.30
2022-08-26T21:45:27.196Z,16.00
2022-08-26T21:49:30.519Z,17.27
2022-08-26T21:53:33.921Z,14.83
2022-08-26T21:57:37.241Z,19.23
2022-08-26T22:01:42.879Z,13.53
2022-08-26T22:05:47.496Z,13.13
2022-08-26T22:09:50.756Z,13.87
2022-08-26T22:13:55.313Z,15.10
2022-08-26T22:18:00.015Z,14.30
2022-08-26T22:22:03.826Z,19.00
2022-08-26T22:26:09.063Z,13.47
2022-08-26T22:30:12.903Z,14.17
2022-08-26T22:34:19.683Z,14.97
2022-08-26T22:38:24.188Z,17.30
2022-08-26T22:42:27.552Z,17.60
2022-08-26T22:46:31.818Z,15.03
2022-08-26T22:50:36.584Z,16.83
2022-08-26T22:54:39.893Z,19.33
2022-08-26T22:58:43.348Z,14.07
2022-08-26T23:02:46.661Z,15.90
2022-08-26T23:06:51.470Z,19.10
2022-08-26T23:10:55.107Z,15.83
2022-08-26T23:14:58.478Z,15.23
2022-08-26T23:19:01.736Z,13.37
2022-08-26T23:23:06.600Z,12.83
2022-08-26T23:27:10.343Z,16.33
2022-08-26T23:31:14.459Z,16.20
2022-08-26T23:35:21.735Z,13.97
2022-08-26T23:39:27.100Z,20.53
2022-08-26T23:43:30.606Z,14.17
2022-08-26T23:47:34.109Z,13.57
2022-08-26T23:52:01.218Z,14.57
2022-08-26T23:56:06.217Z,17.63
